メインページ
METAR-TAF:

METAR-TAF

空港 :

ファアモツ国際空港

トンガタプ島, トンガ

緯度: 21-14S, 経度: 175-09W, 海抜: 38m

現時点の気象観測

当レポートは50分前の05:00(UTC)に作成
東/南東の風 6kt
気温 27°C
湿度 79%
気圧 1014 hPa
視程10km以上
高度1600ftの雲はほとんどない
高度29000ftの千切れ雲あり

METAR: NFTF 210500Z 12006KT 9999 FEW016 BKN290 27/23 Q1014

時間: 18:50 (05:50 UTC)

予報

当レポートは26分前の05:24(UTC)に作成
予報は21日の 06時(UTC)から 22日の 06時(UTC)まで有効
東/南東の風 7kt
視程10km以上
高度1600ftの雲はほとんどない
高度10000ftの雲は散在している

TAF: NFTF 210524Z 2106/2206 12007KT 9999 FEW016 SCT100

4,000以上の空港の気象観測と天気予報(METAR報とTAF報)

利用可能な観測所は地図上に黄色い丸と赤い丸で示す。

丸の上にカーソルを重ねると観測所名を参照できる。

次にクリックすると気象観測と天気予報を参照できる。

マップの切り替え:黒色「×」印の緑ボタンをクリックして拡大、「-」印の緑ボタンをクリックして縮小、緑色の三角印をクリックして隣りの地図に切り替え


METAR-TAF: